sensor_id;sensor_type;location;lat;lon;timestamp;P1;durP1;ratioP1;P2;durP2;ratioP2
40116;SDS011;25829;50.228;18.936;2023-03-18T00:01:25;48.57;;;23.50;;
40116;SDS011;25829;50.228;18.936;2023-03-18T00:04:26;47.30;;;23.20;;
40116;SDS011;25829;50.228;18.936;2023-03-18T00:07:27;53.77;;;24.07;;
40116;SDS011;25829;50.228;18.936;2023-03-18T00:10:27;48.83;;;23.07;;
40116;SDS011;25829;50.228;18.936;2023-03-18T00:16:46;48.30;;;24.60;;
40116;SDS011;25829;50.228;18.936;2023-03-18T00:19:47;50.97;;;24.00;;
40116;SDS011;25829;50.228;18.936;2023-03-18T00:22:49;51.87;;;25.43;;
40116;SDS011;25829;50.228;18.936;2023-03-18T00:25:51;61.27;;;27.50;;
40116;SDS011;25829;50.228;18.936;2023-03-18T00:29:02;47.27;;;23.07;;
40116;SDS011;25829;50.228;18.936;2023-03-18T00:32:09;47.17;;;24.23;;
40116;SDS011;25829;50.228;18.936;2023-03-18T00:35:10;52.60;;;25.93;;
40116;SDS011;25829;50.228;18.936;2023-03-18T00:38:11;54.23;;;26.00;;
40116;SDS011;25829;50.228;18.936;2023-03-18T00:41:25;55.77;;;27.37;;
40116;SDS011;25829;50.228;18.936;2023-03-18T00:44:39;61.83;;;26.60;;
40116;SDS011;25829;50.228;18.936;2023-03-18T00:47:41;53.80;;;25.73;;
40116;SDS011;25829;50.228;18.936;2023-03-18T00:50:42;65.17;;;26.90;;
40116;SDS011;25829;50.228;18.936;2023-03-18T00:53:48;56.50;;;26.83;;
40116;SDS011;25829;50.228;18.936;2023-03-18T00:56:56;55.17;;;26.60;;
40116;SDS011;25829;50.228;18.936;2023-03-18T00:59:57;57.27;;;27.27;;
40116;SDS011;25829;50.228;18.936;2023-03-18T01:03:00;55.57;;;28.80;;
40116;SDS011;25829;50.228;18.936;2023-03-18T01:06:06;66.23;;;31.33;;
40116;SDS011;25829;50.228;18.936;2023-03-18T01:09:07;67.57;;;30.10;;
40116;SDS011;25829;50.228;18.936;2023-03-18T01:12:16;74.43;;;31.77;;
40116;SDS011;25829;50.228;18.936;2023-03-18T01:15:17;72.97;;;33.47;;
40116;SDS011;25829;50.228;18.936;2023-03-18T01:18:20;70.53;;;32.53;;
40116;SDS011;25829;50.228;18.936;2023-03-18T01:21:23;64.60;;;32.43;;
40116;SDS011;25829;50.228;18.936;2023-03-18T01:24:31;65.37;;;29.37;;
40116;SDS011;25829;50.228;18.936;2023-03-18T01:27:35;61.07;;;29.80;;
40116;SDS011;25829;50.228;18.936;2023-03-18T01:30:37;61.17;;;28.77;;
40116;SDS011;25829;50.228;18.936;2023-03-18T01:33:40;63.33;;;29.20;;
40116;SDS011;25829;50.228;18.936;2023-03-18T01:36:40;57.07;;;27.97;;
40116;SDS011;25829;50.228;18.936;2023-03-18T01:39:45;68.93;;;30.13;;
40116;SDS011;25829;50.228;18.936;2023-03-18T01:42:57;65.73;;;30.33;;
40116;SDS011;25829;50.228;18.936;2023-03-18T01:49:40;67.00;;;30.33;;
40116;SDS011;25829;50.228;18.936;2023-03-18T01:52:46;66.80;;;30.50;;
40116;SDS011;25829;50.228;18.936;2023-03-18T01:55:49;70.07;;;31.53;;
40116;SDS011;25829;50.228;18.936;2023-03-18T01:59:00;55.87;;;30.17;;
40116;SDS011;25829;50.228;18.936;2023-03-18T02:11:27;43.63;;;23.50;;
40116;SDS011;25829;50.228;18.936;2023-03-18T02:14:35;45.23;;;21.77;;
40116;SDS011;25829;50.228;18.936;2023-03-18T02:18:03;46.03;;;23.77;;
40116;SDS011;25829;50.228;18.936;2023-03-18T02:28:45;48.17;;;23.33;;
40116;SDS011;25829;50.228;18.936;2023-03-18T02:31:49;54.33;;;25.83;;
40116;SDS011;25829;50.228;18.936;2023-03-18T02:34:56;44.47;;;22.67;;
40116;SDS011;25829;50.228;18.936;2023-03-18T02:38:01;42.50;;;22.60;;
40116;SDS011;25829;50.228;18.936;2023-03-18T02:41:04;49.03;;;23.13;;
40116;SDS011;25829;50.228;18.936;2023-03-18T02:44:13;48.60;;;24.80;;
40116;SDS011;25829;50.228;18.936;2023-03-18T02:51:30;44.97;;;22.80;;
40116;SDS011;25829;50.228;18.936;2023-03-18T02:58:05;40.37;;;23.37;;
40116;SDS011;25829;50.228;18.936;2023-03-18T03:01:08;45.53;;;24.40;;
40116;SDS011;25829;50.228;18.936;2023-03-18T03:04:09;49.17;;;25.30;;
40116;SDS011;25829;50.228;18.936;2023-03-18T03:07:12;40.23;;;20.77;;
40116;SDS011;25829;50.228;18.936;2023-03-18T03:10:20;51.40;;;23.03;;
40116;SDS011;25829;50.228;18.936;2023-03-18T03:13:22;40.70;;;22.07;;
40116;SDS011;25829;50.228;18.936;2023-03-18T03:16:26;45.00;;;23.17;;
40116;SDS011;25829;50.228;18.936;2023-03-18T03:19:30;46.00;;;22.33;;
40116;SDS011;25829;50.228;18.936;2023-03-18T03:22:31;40.90;;;21.10;;
40116;SDS011;25829;50.228;18.936;2023-03-18T03:25:33;39.43;;;19.97;;
40116;SDS011;25829;50.228;18.936;2023-03-18T03:28:36;43.87;;;22.67;;
40116;SDS011;25829;50.228;18.936;2023-03-18T03:31:36;39.03;;;20.63;;
40116;SDS011;25829;50.228;18.936;2023-03-18T03:34:39;44.93;;;21.40;;
40116;SDS011;25829;50.228;18.936;2023-03-18T03:37:43;37.43;;;20.13;;
40116;SDS011;25829;50.228;18.936;2023-03-18T03:40:45;45.07;;;22.90;;
40116;SDS011;25829;50.228;18.936;2023-03-18T03:43:46;40.53;;;21.40;;
40116;SDS011;25829;50.228;18.936;2023-03-18T03:46:47;34.70;;;19.13;;
40116;SDS011;25829;50.228;18.936;2023-03-18T03:49:47;32.30;;;17.50;;
40116;SDS011;25829;50.228;18.936;2023-03-18T03:52:49;28.00;;;15.40;;
40116;SDS011;25829;50.228;18.936;2023-03-18T03:55:56;26.30;;;14.57;;
40116;SDS011;25829;50.228;18.936;2023-03-18T03:58:56;31.10;;;16.63;;
40116;SDS011;25829;50.228;18.936;2023-03-18T04:02:08;35.60;;;17.90;;
40116;SDS011;25829;50.228;18.936;2023-03-18T04:05:10;41.73;;;19.33;;
40116;SDS011;25829;50.228;18.936;2023-03-18T04:08:12;35.80;;;19.07;;
40116;SDS011;25829;50.228;18.936;2023-03-18T04:11:13;44.90;;;21.53;;
40116;SDS011;25829;50.228;18.936;2023-03-18T04:14:14;38.47;;;21.93;;
40116;SDS011;25829;50.228;18.936;2023-03-18T04:17:16;37.93;;;22.07;;
40116;SDS011;25829;50.228;18.936;2023-03-18T04:20:17;41.47;;;22.63;;
40116;SDS011;25829;50.228;18.936;2023-03-18T04:23:18;44.50;;;21.20;;
40116;SDS011;25829;50.228;18.936;2023-03-18T04:26:20;41.90;;;22.37;;
40116;SDS011;25829;50.228;18.936;2023-03-18T04:29:21;41.07;;;22.40;;
40116;SDS011;25829;50.228;18.936;2023-03-18T04:32:22;47.50;;;21.63;;
40116;SDS011;25829;50.228;18.936;2023-03-18T04:35:23;44.67;;;23.43;;
40116;SDS011;25829;50.228;18.936;2023-03-18T04:38:24;39.07;;;20.93;;
40116;SDS011;25829;50.228;18.936;2023-03-18T04:41:28;42.07;;;21.53;;
40116;SDS011;25829;50.228;18.936;2023-03-18T04:44:32;43.57;;;21.77;;
40116;SDS011;25829;50.228;18.936;2023-03-18T04:47:33;37.87;;;23.07;;
40116;SDS011;25829;50.228;18.936;2023-03-18T04:50:36;37.70;;;21.30;;
40116;SDS011;25829;50.228;18.936;2023-03-18T04:53:38;37.27;;;21.33;;
40116;SDS011;25829;50.228;18.936;2023-03-18T04:56:40;41.33;;;22.73;;
40116;SDS011;25829;50.228;18.936;2023-03-18T04:59:42;29.33;;;18.37;;
40116;SDS011;25829;50.228;18.936;2023-03-18T05:02:43;35.63;;;18.57;;
40116;SDS011;25829;50.228;18.936;2023-03-18T05:05:45;39.20;;;19.57;;
40116;SDS011;25829;50.228;18.936;2023-03-18T05:08:52;34.70;;;19.93;;
40116;SDS011;25829;50.228;18.936;2023-03-18T05:11:53;38.77;;;22.93;;
40116;SDS011;25829;50.228;18.936;2023-03-18T05:14:59;40.83;;;23.80;;
40116;SDS011;25829;50.228;18.936;2023-03-18T05:18:00;39.83;;;22.03;;
40116;SDS011;25829;50.228;18.936;2023-03-18T05:21:02;41.77;;;22.10;;
40116;SDS011;25829;50.228;18.936;2023-03-18T05:24:04;43.93;;;23.20;;
40116;SDS011;25829;50.228;18.936;2023-03-18T05:27:15;38.70;;;22.67;;
40116;SDS011;25829;50.228;18.936;2023-03-18T05:30:24;42.73;;;22.87;;
40116;SDS011;25829;50.228;18.936;2023-03-18T05:33:27;40.70;;;22.10;;
40116;SDS011;25829;50.228;18.936;2023-03-18T05:36:39;43.67;;;23.87;;
40116;SDS011;25829;50.228;18.936;2023-03-18T05:39:45;39.30;;;22.83;;
40116;SDS011;25829;50.228;18.936;2023-03-18T05:42:49;36.77;;;22.50;;
40116;SDS011;25829;50.228;18.936;2023-03-18T05:45:50;44.47;;;23.20;;
40116;SDS011;25829;50.228;18.936;2023-03-18T05:49:02;36.60;;;21.57;;
40116;SDS011;25829;50.228;18.936;2023-03-18T05:52:14;43.43;;;22.90;;
40116;SDS011;25829;50.228;18.936;2023-03-18T05:55:19;39.43;;;23.20;;
40116;SDS011;25829;50.228;18.936;2023-03-18T05:58:20;44.77;;;24.57;;
40116;SDS011;25829;50.228;18.936;2023-03-18T06:01:25;44.03;;;26.20;;
40116;SDS011;25829;50.228;18.936;2023-03-18T06:04:33;51.10;;;28.00;;
40116;SDS011;25829;50.228;18.936;2023-03-18T06:07:34;62.53;;;33.37;;
40116;SDS011;25829;50.228;18.936;2023-03-18T06:10:44;63.60;;;33.27;;
40116;SDS011;25829;50.228;18.936;2023-03-18T06:13:48;60.00;;;30.67;;
40116;SDS011;25829;50.228;18.936;2023-03-18T06:16:48;71.10;;;36.87;;
40116;SDS011;25829;50.228;18.936;2023-03-18T06:20:13;67.80;;;34.33;;
40116;SDS011;25829;50.228;18.936;2023-03-18T06:23:17;80.40;;;39.03;;
40116;SDS011;25829;50.228;18.936;2023-03-18T06:26:18;61.80;;;33.47;;
40116;SDS011;25829;50.228;18.936;2023-03-18T06:29:24;48.07;;;25.73;;
40116;SDS011;25829;50.228;18.936;2023-03-18T06:32:29;61.80;;;34.90;;
40116;SDS011;25829;50.228;18.936;2023-03-18T06:35:31;50.00;;;29.50;;
40116;SDS011;25829;50.228;18.936;2023-03-18T06:38:38;53.60;;;28.37;;
40116;SDS011;25829;50.228;18.936;2023-03-18T06:41:40;50.40;;;28.07;;
40116;SDS011;25829;50.228;18.936;2023-03-18T06:44:59;56.43;;;28.00;;
40116;SDS011;25829;50.228;18.936;2023-03-18T06:48:13;40.33;;;22.27;;
40116;SDS011;25829;50.228;18.936;2023-03-18T06:51:17;38.93;;;20.50;;
40116;SDS011;25829;50.228;18.936;2023-03-18T06:54:27;30.00;;;16.53;;
40116;SDS011;25829;50.228;18.936;2023-03-18T06:57:29;26.20;;;14.57;;
40116;SDS011;25829;50.228;18.936;2023-03-18T07:07:28;21.63;;;12.70;;
40116;SDS011;25829;50.228;18.936;2023-03-18T07:11:22;19.90;;;12.23;;
40116;SDS011;25829;50.228;18.936;2023-03-18T07:18:55;21.37;;;12.23;;
40116;SDS011;25829;50.228;18.936;2023-03-18T07:21:58;17.57;;;10.47;;
40116;SDS011;25829;50.228;18.936;2023-03-18T07:25:02;19.13;;;10.80;;
40116;SDS011;25829;50.228;18.936;2023-03-18T07:31:24;19.50;;;11.33;;
40116;SDS011;25829;50.228;18.936;2023-03-18T07:34:33;20.90;;;10.57;;
40116;SDS011;25829;50.228;18.936;2023-03-18T08:04:12;16.93;;;10.27;;
40116;SDS011;25829;50.228;18.936;2023-03-18T08:16:06;16.17;;;10.13;;
40116;SDS011;25829;50.228;18.936;2023-03-18T08:19:42;20.27;;;10.57;;
40116;SDS011;25829;50.228;18.936;2023-03-18T08:22:46;16.00;;;10.70;;
40116;SDS011;25829;50.228;18.936;2023-03-18T08:25:50;16.80;;;10.57;;
40116;SDS011;25829;50.228;18.936;2023-03-18T08:32:18;13.90;;;9.50;;
40116;SDS011;25829;50.228;18.936;2023-03-18T08:35:19;16.13;;;9.67;;
40116;SDS011;25829;50.228;18.936;2023-03-18T08:38:21;17.83;;;9.80;;
40116;SDS011;25829;50.228;18.936;2023-03-18T08:41:26;13.73;;;9.07;;
40116;SDS011;25829;50.228;18.936;2023-03-18T08:44:26;11.60;;;7.87;;
40116;SDS011;25829;50.228;18.936;2023-03-18T08:47:27;13.00;;;9.37;;
40116;SDS011;25829;50.228;18.936;2023-03-18T08:50:38;15.20;;;10.13;;
40116;SDS011;25829;50.228;18.936;2023-03-18T08:53:57;14.47;;;9.03;;
40116;SDS011;25829;50.228;18.936;2023-03-18T08:57:10;19.53;;;10.30;;
40116;SDS011;25829;50.228;18.936;2023-03-18T09:00:11;16.83;;;10.20;;
40116;SDS011;25829;50.228;18.936;2023-03-18T09:03:31;15.00;;;9.50;;
40116;SDS011;25829;50.228;18.936;2023-03-18T09:06:51;14.70;;;8.57;;
40116;SDS011;25829;50.228;18.936;2023-03-18T09:13:50;13.67;;;8.63;;
40116;SDS011;25829;50.228;18.936;2023-03-18T09:20:31;10.07;;;6.50;;
40116;SDS011;25829;50.228;18.936;2023-03-18T09:23:32;8.97;;;5.90;;
40116;SDS011;25829;50.228;18.936;2023-03-18T09:26:36;10.77;;;6.23;;
40116;SDS011;25829;50.228;18.936;2023-03-18T09:29:41;8.43;;;5.40;;
40116;SDS011;25829;50.228;18.936;2023-03-18T09:32:45;8.37;;;5.27;;
40116;SDS011;25829;50.228;18.936;2023-03-18T09:44:23;8.23;;;5.70;;
40116;SDS011;25829;50.228;18.936;2023-03-18T09:55:11;15.13;;;7.63;;
40116;SDS011;25829;50.228;18.936;2023-03-18T09:58:56;11.80;;;6.63;;
40116;SDS011;25829;50.228;18.936;2023-03-18T10:06:06;9.35;;;6.30;;
40116;SDS011;25829;50.228;18.936;2023-03-18T10:41:48;5.85;;;4.35;;
40116;SDS011;25829;50.228;18.936;2023-03-18T10:45:01;8.27;;;4.60;;
40116;SDS011;25829;50.228;18.936;2023-03-18T10:55:29;6.93;;;4.13;;
40116;SDS011;25829;50.228;18.936;2023-03-18T10:59:17;7.97;;;4.85;;
40116;SDS011;25829;50.228;18.936;2023-03-18T11:02:31;7.57;;;4.30;;
40116;SDS011;25829;50.228;18.936;2023-03-18T11:05:35;10.98;;;5.07;;
40116;SDS011;25829;50.228;18.936;2023-03-18T11:08:46;8.48;;;4.57;;
40116;SDS011;25829;50.228;18.936;2023-03-18T11:12:17;8.07;;;4.60;;
40116;SDS011;25829;50.228;18.936;2023-03-18T11:15:51;6.80;;;4.50;;
40116;SDS011;25829;50.228;18.936;2023-03-18T11:22:53;6.68;;;4.55;;
40116;SDS011;25829;50.228;18.936;2023-03-18T11:37:26;6.20;;;4.80;;
40116;SDS011;25829;50.228;18.936;2023-03-18T11:40:36;6.80;;;4.80;;
40116;SDS011;25829;50.228;18.936;2023-03-18T11:50:33;6.35;;;4.60;;
40116;SDS011;25829;50.228;18.936;2023-03-18T13:00:14;7.82;;;4.97;;
40116;SDS011;25829;50.228;18.936;2023-03-18T13:03:40;6.63;;;4.68;;
40116;SDS011;25829;50.228;18.936;2023-03-18T13:07:34;5.93;;;4.43;;
40116;SDS011;25829;50.228;18.936;2023-03-18T13:10:39;7.68;;;4.72;;
40116;SDS011;25829;50.228;18.936;2023-03-18T13:14:41;8.20;;;4.57;;
40116;SDS011;25829;50.228;18.936;2023-03-18T13:17:43;8.77;;;5.25;;
40116;SDS011;25829;50.228;18.936;2023-03-18T13:28:54;6.93;;;4.22;;
40116;SDS011;25829;50.228;18.936;2023-03-18T13:43:09;5.47;;;4.22;;
40116;SDS011;25829;50.228;18.936;2023-03-18T13:46:34;5.32;;;4.05;;
40116;SDS011;25829;50.228;18.936;2023-03-18T14:07:38;5.10;;;4.35;;
40116;SDS011;25829;50.228;18.936;2023-03-18T14:22:42;7.53;;;4.70;;
40116;SDS011;25829;50.228;18.936;2023-03-18T14:26:25;14.95;;;6.82;;
40116;SDS011;25829;50.228;18.936;2023-03-18T14:29:45;10.73;;;5.15;;
40116;SDS011;25829;50.228;18.936;2023-03-18T14:33:10;27.73;;;15.25;;
40116;SDS011;25829;50.228;18.936;2023-03-18T14:42:02;7.57;;;4.93;;
40116;SDS011;25829;50.228;18.936;2023-03-18T14:44:44;5.93;;;4.32;;
40116;SDS011;25829;50.228;18.936;2023-03-18T14:47:52;7.43;;;4.78;;
40116;SDS011;25829;50.228;18.936;2023-03-18T14:51:31;13.18;;;7.00;;
40116;SDS011;25829;50.228;18.936;2023-03-18T14:54:34;13.60;;;7.30;;
40116;SDS011;25829;50.228;18.936;2023-03-18T14:57:48;10.65;;;6.20;;
40116;SDS011;25829;50.228;18.936;2023-03-18T15:01:12;6.55;;;4.68;;
40116;SDS011;25829;50.228;18.936;2023-03-18T15:18:57;7.53;;;4.35;;
40116;SDS011;25829;50.228;18.936;2023-03-18T15:25:34;8.60;;;3.83;;
40116;SDS011;25829;50.228;18.936;2023-03-18T15:28:54;6.03;;;4.22;;
40116;SDS011;25829;50.228;18.936;2023-03-18T15:35:23;6.55;;;4.75;;
40116;SDS011;25829;50.228;18.936;2023-03-18T15:38:48;6.25;;;4.78;;
40116;SDS011;25829;50.228;18.936;2023-03-18T15:41:52;5.00;;;3.72;;
40116;SDS011;25829;50.228;18.936;2023-03-18T15:45:19;9.38;;;5.07;;
40116;SDS011;25829;50.228;18.936;2023-03-18T15:48:29;8.13;;;4.00;;
40116;SDS011;25829;50.228;18.936;2023-03-18T15:59:02;10.68;;;5.70;;
40116;SDS011;25829;50.228;18.936;2023-03-18T16:05:28;5.70;;;4.63;;
40116;SDS011;25829;50.228;18.936;2023-03-18T16:08:39;7.40;;;5.22;;
40116;SDS011;25829;50.228;18.936;2023-03-18T16:12:26;10.90;;;5.85;;
40116;SDS011;25829;50.228;18.936;2023-03-18T16:15:28;11.43;;;6.00;;
40116;SDS011;25829;50.228;18.936;2023-03-18T16:18:29;9.23;;;6.22;;
40116;SDS011;25829;50.228;18.936;2023-03-18T16:21:41;8.85;;;6.22;;
40116;SDS011;25829;50.228;18.936;2023-03-18T16:28:51;8.82;;;5.68;;
40116;SDS011;25829;50.228;18.936;2023-03-18T16:43:35;11.18;;;8.50;;
40116;SDS011;25829;50.228;18.936;2023-03-18T16:46:36;18.17;;;10.65;;
40116;SDS011;25829;50.228;18.936;2023-03-18T16:52:54;16.80;;;11.40;;
40116;SDS011;25829;50.228;18.936;2023-03-18T16:56:02;16.90;;;10.80;;
40116;SDS011;25829;50.228;18.936;2023-03-18T16:59:29;19.05;;;11.65;;
40116;SDS011;25829;50.228;18.936;2023-03-18T17:02:51;22.95;;;13.65;;
40116;SDS011;25829;50.228;18.936;2023-03-18T17:05:55;30.48;;;18.38;;
40116;SDS011;25829;50.228;18.936;2023-03-18T17:09:11;38.83;;;22.13;;
40116;SDS011;25829;50.228;18.936;2023-03-18T17:12:12;39.58;;;22.23;;
40116;SDS011;25829;50.228;18.936;2023-03-18T17:15:16;37.50;;;22.23;;
40116;SDS011;25829;50.228;18.936;2023-03-18T17:18:25;36.72;;;23.38;;
40116;SDS011;25829;50.228;18.936;2023-03-18T17:21:29;36.83;;;23.85;;
40116;SDS011;25829;50.228;18.936;2023-03-18T17:24:33;37.73;;;23.53;;
40116;SDS011;25829;50.228;18.936;2023-03-18T17:27:37;40.20;;;27.07;;
40116;SDS011;25829;50.228;18.936;2023-03-18T17:30:49;34.10;;;22.53;;
40116;SDS011;25829;50.228;18.936;2023-03-18T17:33:50;34.50;;;22.07;;
40116;SDS011;25829;50.228;18.936;2023-03-18T17:36:51;25.07;;;15.30;;
40116;SDS011;25829;50.228;18.936;2023-03-18T17:39:52;29.33;;;16.33;;
40116;SDS011;25829;50.228;18.936;2023-03-18T17:42:53;14.97;;;9.63;;
40116;SDS011;25829;50.228;18.936;2023-03-18T17:45:54;14.37;;;9.20;;
40116;SDS011;25829;50.228;18.936;2023-03-18T17:48:56;14.23;;;9.33;;
40116;SDS011;25829;50.228;18.936;2023-03-18T17:52:07;9.63;;;7.67;;
40116;SDS011;25829;50.228;18.936;2023-03-18T17:55:28;13.87;;;11.20;;
40116;SDS011;25829;50.228;18.936;2023-03-18T17:58:30;20.33;;;14.27;;
40116;SDS011;25829;50.228;18.936;2023-03-18T18:01:50;228.80;;;74.40;;
40116;SDS011;25829;50.228;18.936;2023-03-18T18:05:02;97.77;;;37.83;;
40116;SDS011;25829;50.228;18.936;2023-03-18T18:08:16;84.13;;;34.20;;
40116;SDS011;25829;50.228;18.936;2023-03-18T18:11:31;107.37;;;42.87;;
40116;SDS011;25829;50.228;18.936;2023-03-18T18:14:57;143.73;;;54.63;;
40116;SDS011;25829;50.228;18.936;2023-03-18T18:18:10;131.33;;;47.80;;
40116;SDS011;25829;50.228;18.936;2023-03-18T18:32:26;97.77;;;41.03;;
40116;SDS011;25829;50.228;18.936;2023-03-18T18:35:31;107.87;;;41.13;;
40116;SDS011;25829;50.228;18.936;2023-03-18T18:41:41;98.87;;;41.53;;
40116;SDS011;25829;50.228;18.936;2023-03-18T19:01:07;77.00;;;32.83;;
40116;SDS011;25829;50.228;18.936;2023-03-18T19:27:52;31.90;;;18.17;;
40116;SDS011;25829;50.228;18.936;2023-03-18T19:30:57;26.87;;;15.37;;
40116;SDS011;25829;50.228;18.936;2023-03-18T19:34:04;29.53;;;16.13;;
40116;SDS011;25829;50.228;18.936;2023-03-18T19:48:28;30.70;;;15.77;;
40116;SDS011;25829;50.228;18.936;2023-03-18T19:51:29;28.90;;;15.67;;
40116;SDS011;25829;50.228;18.936;2023-03-18T19:54:49;25.17;;;14.00;;
40116;SDS011;25829;50.228;18.936;2023-03-18T19:57:50;25.17;;;13.57;;
40116;SDS011;25829;50.228;18.936;2023-03-18T20:01:39;27.10;;;15.07;;
40116;SDS011;25829;50.228;18.936;2023-03-18T20:04:55;25.87;;;14.10;;
40116;SDS011;25829;50.228;18.936;2023-03-18T20:12:11;31.83;;;15.97;;
40116;SDS011;25829;50.228;18.936;2023-03-18T20:19:19;63.57;;;32.10;;
40116;SDS011;25829;50.228;18.936;2023-03-18T20:23:09;84.20;;;39.33;;
40116;SDS011;25829;50.228;18.936;2023-03-18T20:26:48;96.10;;;46.37;;
40116;SDS011;25829;50.228;18.936;2023-03-18T20:29:53;118.67;;;57.80;;
40116;SDS011;25829;50.228;18.936;2023-03-18T20:32:54;100.27;;;47.57;;
40116;SDS011;25829;50.228;18.936;2023-03-18T20:35:55;59.50;;;30.13;;
40116;SDS011;25829;50.228;18.936;2023-03-18T20:38:57;36.67;;;20.23;;
40116;SDS011;25829;50.228;18.936;2023-03-18T20:45:34;35.30;;;19.30;;
40116;SDS011;25829;50.228;18.936;2023-03-18T20:48:35;49.27;;;23.13;;
40116;SDS011;25829;50.228;18.936;2023-03-18T20:51:57;46.57;;;24.57;;
40116;SDS011;25829;50.228;18.936;2023-03-18T20:56:13;49.60;;;24.63;;
40116;SDS011;25829;50.228;18.936;2023-03-18T20:59:15;49.83;;;26.73;;
40116;SDS011;25829;50.228;18.936;2023-03-18T21:02:26;56.47;;;27.77;;
40116;SDS011;25829;50.228;18.936;2023-03-18T21:05:36;66.47;;;31.13;;
40116;SDS011;25829;50.228;18.936;2023-03-18T21:08:42;38.60;;;21.23;;
40116;SDS011;25829;50.228;18.936;2023-03-18T21:11:43;42.80;;;22.57;;
40116;SDS011;25829;50.228;18.936;2023-03-18T21:14:45;42.27;;;21.77;;
40116;SDS011;25829;50.228;18.936;2023-03-18T21:17:46;46.47;;;22.70;;
40116;SDS011;25829;50.228;18.936;2023-03-18T21:20:48;54.53;;;27.00;;
40116;SDS011;25829;50.228;18.936;2023-03-18T21:23:50;54.17;;;26.40;;
40116;SDS011;25829;50.228;18.936;2023-03-18T21:27:02;54.27;;;27.13;;
40116;SDS011;25829;50.228;18.936;2023-03-18T21:30:03;59.90;;;30.20;;
40116;SDS011;25829;50.228;18.936;2023-03-18T21:33:18;52.40;;;28.17;;
40116;SDS011;25829;50.228;18.936;2023-03-18T21:36:41;73.57;;;31.43;;
40116;SDS011;25829;50.228;18.936;2023-03-18T21:48:08;121.10;;;46.23;;
40116;SDS011;25829;50.228;18.936;2023-03-18T21:54:42;99.37;;;40.97;;
40116;SDS011;25829;50.228;18.936;2023-03-18T21:57:43;103.20;;;41.13;;
40116;SDS011;25829;50.228;18.936;2023-03-18T22:00:55;85.43;;;37.63;;
40116;SDS011;25829;50.228;18.936;2023-03-18T22:07:36;41.03;;;19.73;;
40116;SDS011;25829;50.228;18.936;2023-03-18T22:10:37;31.87;;;16.13;;
40116;SDS011;25829;50.228;18.936;2023-03-18T22:13:44;37.43;;;18.60;;
40116;SDS011;25829;50.228;18.936;2023-03-18T22:20:56;23.30;;;11.63;;
40116;SDS011;25829;50.228;18.936;2023-03-18T22:23:57;24.50;;;12.83;;
40116;SDS011;25829;50.228;18.936;2023-03-18T22:26:59;22.33;;;12.93;;
40116;SDS011;25829;50.228;18.936;2023-03-18T22:30:00;28.17;;;14.87;;
40116;SDS011;25829;50.228;18.936;2023-03-18T22:33:01;31.63;;;17.03;;
40116;SDS011;25829;50.228;18.936;2023-03-18T22:36:04;32.10;;;18.20;;
40116;SDS011;25829;50.228;18.936;2023-03-18T22:39:05;33.50;;;18.80;;
40116;SDS011;25829;50.228;18.936;2023-03-18T22:42:08;31.37;;;18.87;;
40116;SDS011;25829;50.228;18.936;2023-03-18T22:45:30;35.47;;;19.63;;
40116;SDS011;25829;50.228;18.936;2023-03-18T22:48:32;34.57;;;19.47;;
40116;SDS011;25829;50.228;18.936;2023-03-18T22:51:39;45.50;;;23.03;;
40116;SDS011;25829;50.228;18.936;2023-03-18T22:55:05;47.23;;;25.60;;
40116;SDS011;25829;50.228;18.936;2023-03-18T22:58:33;52.40;;;25.47;;
40116;SDS011;25829;50.228;18.936;2023-03-18T23:01:46;50.67;;;26.50;;
40116;SDS011;25829;50.228;18.936;2023-03-18T23:04:53;56.60;;;26.27;;
40116;SDS011;25829;50.228;18.936;2023-03-18T23:07:54;46.63;;;25.10;;
40116;SDS011;25829;50.228;18.936;2023-03-18T23:10:59;66.33;;;31.57;;
40116;SDS011;25829;50.228;18.936;2023-03-18T23:14:09;65.30;;;30.73;;
40116;SDS011;25829;50.228;18.936;2023-03-18T23:17:15;62.57;;;31.27;;
40116;SDS011;25829;50.228;18.936;2023-03-18T23:20:17;66.77;;;31.77;;
40116;SDS011;25829;50.228;18.936;2023-03-18T23:23:24;83.07;;;36.27;;
40116;SDS011;25829;50.228;18.936;2023-03-18T23:26:41;79.37;;;35.57;;
40116;SDS011;25829;50.228;18.936;2023-03-18T23:33:21;82.10;;;34.30;;
40116;SDS011;25829;50.228;18.936;2023-03-18T23:36:28;56.27;;;30.30;;
40116;SDS011;25829;50.228;18.936;2023-03-18T23:39:38;51.97;;;24.83;;
40116;SDS011;25829;50.228;18.936;2023-03-18T23:42:43;49.30;;;24.60;;
40116;SDS011;25829;50.228;18.936;2023-03-18T23:45:44;40.50;;;21.20;;
40116;SDS011;25829;50.228;18.936;2023-03-18T23:48:45;39.10;;;20.43;;
40116;SDS011;25829;50.228;18.936;2023-03-18T23:51:46;38.27;;;19.07;;
40116;SDS011;25829;50.228;18.936;2023-03-18T23:54:47;41.17;;;17.70;;
40116;SDS011;25829;50.228;18.936;2023-03-18T23:57:48;31.23;;;16.40;;
